TimePDT,TemperatureF,Dew PointF,Humidity,Sea Level PressureIn,VisibilityMPH,Wind Direction,Wind SpeedMPH,Gust SpeedMPH,PrecipitationIn,Events,Conditions,WindDirDegrees,DateUTC
12:53 AM,44.1,41.0,89,30.14,6.0,Calm,Calm,-,N/A,,Clear,0,2012-09-24 07:53:00
1:53 AM,44.1,41.0,89,30.15,6.0,Calm,Calm,-,N/A,,Clear,0,2012-09-24 08:53:00
2:53 AM,44.1,41.0,89,30.15,6.0,Calm,Calm,-,N/A,,Clear,0,2012-09-24 09:53:00
3:53 AM,43.0,39.9,89,30.15,6.0,Calm,Calm,-,N/A,,Clear,0,2012-09-24 10:53:00
4:48 AM,42.8,39.2,87,30.14,5.0,East,3.5,-,N/A,,Scattered Clouds,100,2012-09-24 11:48:00
4:53 AM,42.1,39.9,92,30.15,4.0,Calm,Calm,-,N/A,,Mostly Cloudy,0,2012-09-24 11:53:00
4:55 AM,42.8,39.2,87,30.15,1.2,Calm,Calm,-,N/A,,Mostly Cloudy,0,2012-09-24 11:55:00
4:59 AM,42.8,39.2,87,30.15,0.2,NE,3.5,-,N/A,Fog,Fog,50,2012-09-24 11:59:00
5:20 AM,42.8,41.0,93,30.14,1.0,NE,3.5,-,N/A,,Overcast,40,2012-09-24 12:20:00
5:24 AM,42.8,41.0,93,30.14,2.0,NE,3.5,-,N/A,,Overcast,40,2012-09-24 12:24:00
5:36 AM,44.6,41.0,87,30.14,4.0,Calm,Calm,-,N/A,,Overcast,0,2012-09-24 12:36:00
5:53 AM,45.0,42.1,90,30.14,6.0,Calm,Calm,-,N/A,,Overcast,0,2012-09-24 12:53:00
6:35 AM,42.8,41.0,93,30.14,6.0,Calm,Calm,-,N/A,,Scattered Clouds,0,2012-09-24 13:35:00
6:53 AM,43.0,39.9,89,30.14,5.0,Calm,Calm,-,N/A,,Clear,0,2012-09-24 13:53:00
7:53 AM,44.1,41.0,89,30.15,6.0,Calm,Calm,-,N/A,,Partly Cloudy,0,2012-09-24 14:53:00
8:53 AM,46.9,44.1,90,30.16,5.0,Calm,Calm,-,N/A,,Overcast,0,2012-09-24 15:53:00
9:37 AM,48.2,44.6,87,30.17,6.0,Calm,Calm,-,N/A,,Overcast,0,2012-09-24 16:37:00
9:45 AM,48.2,46.4,93,30.17,6.0,Calm,Calm,-,N/A,,Overcast,0,2012-09-24 16:45:00
9:53 AM,48.9,46.0,90,30.17,4.0,Calm,Calm,-,N/A,,Overcast,0,2012-09-24 16:53:00
10:26 AM,50.0,46.4,87,30.17,1.8,Calm,Calm,-,N/A,,Overcast,0,2012-09-24 17:26:00
10:34 AM,50.0,48.2,94,30.17,1.0,Calm,Calm,-,0.00,Rain,Light Rain,0,2012-09-24 17:34:00
10:46 AM,50.0,48.2,94,30.17,1.8,Calm,Calm,-,0.00,,Overcast,0,2012-09-24 17:46:00
10:53 AM,51.1,48.0,89,30.18,2.5,Calm,Calm,-,0.00,,Overcast,0,2012-09-24 17:53:00
11:02 AM,51.8,48.2,88,30.17,3.0,Calm,Calm,-,N/A,,Overcast,0,2012-09-24 18:02:00
11:12 AM,51.8,48.2,88,30.17,2.5,East,3.5,-,N/A,,Overcast,80,2012-09-24 18:12:00
11:25 AM,53.6,50.0,88,30.17,4.0,East,3.5,-,N/A,,Overcast,100,2012-09-24 18:25:00
11:41 AM,53.6,51.8,94,30.16,1.8,Calm,Calm,-,N/A,,Overcast,0,2012-09-24 18:41:00
11:53 AM,55.0,52.0,89,30.16,1.5,Calm,Calm,-,N/A,,Overcast,0,2012-09-24 18:53:00
12:04 PM,55.4,51.8,88,30.16,3.0,Calm,Calm,-,N/A,,Overcast,0,2012-09-24 19:04:00
12:53 PM,59.0,53.1,81,30.15,6.0,Calm,Calm,-,N/A,,Haze,0,2012-09-24 19:53:00
1:53 PM,60.1,54.0,80,30.15,6.0,Calm,Calm,-,N/A,,Haze,0,2012-09-24 20:53:00
2:34 PM,57.2,53.6,88,30.14,1.8,WSW,4.6,-,N/A,,Overcast,250,2012-09-24 21:34:00
2:51 PM,57.2,53.6,88,30.14,2.5,Calm,Calm,-,N/A,,Overcast,0,2012-09-24 21:51:00
2:53 PM,57.9,54.0,87,30.14,3.0,Calm,Calm,-,N/A,,Overcast,0,2012-09-24 21:53:00
3:31 PM,59.0,55.4,88,30.14,1.8,WNW,6.9,-,N/A,,Overcast,290,2012-09-24 22:31:00
3:53 PM,57.0,55.0,93,30.15,1.8,WNW,5.8,-,0.00,,Overcast,290,2012-09-24 22:53:00
4:05 PM,57.2,53.6,88,30.14,3.0,Calm,Calm,-,N/A,,Overcast,0,2012-09-24 23:05:00
4:43 PM,57.2,53.6,88,30.15,2.0,Variable,4.6,-,0.00,Rain,Light Rain,0,2012-09-24 23:43:00
4:53 PM,55.9,53.1,90,30.15,4.0,NW,4.6,-,0.00,,Overcast,310,2012-09-24 23:53:00
5:23 PM,55.4,51.8,88,30.15,2.0,WNW,5.8,-,N/A,,Overcast,290,2012-09-25 00:23:00
5:44 PM,55.4,51.8,88,30.15,3.0,NW,4.6,-,N/A,,Overcast,320,2012-09-25 00:44:00
5:53 PM,55.0,52.0,89,30.15,3.0,NW,4.6,-,N/A,,Overcast,320,2012-09-25 00:53:00
6:53 PM,54.0,51.1,90,30.15,5.0,NNW,5.8,-,N/A,,Overcast,340,2012-09-25 01:53:00
7:15 PM,53.6,51.8,94,30.15,2.0,Calm,Calm,-,N/A,,Overcast,0,2012-09-25 02:15:00
7:28 PM,53.6,51.8,94,30.15,4.0,NW,3.5,-,N/A,,Overcast,320,2012-09-25 02:28:00
7:53 PM,54.0,51.1,90,30.15,6.0,NW,3.5,-,N/A,,Overcast,310,2012-09-25 02:53:00
8:35 PM,53.6,50.0,88,30.15,5.0,Calm,Calm,-,N/A,,Overcast,0,2012-09-25 03:35:00
8:53 PM,54.0,50.0,86,30.16,5.0,Calm,Calm,-,N/A,,Overcast,0,2012-09-25 03:53:00
9:53 PM,54.0,48.9,83,30.16,6.0,Calm,Calm,-,N/A,,Haze,0,2012-09-25 04:53:00
10:53 PM,54.0,50.0,86,30.16,5.0,Calm,Calm,-,N/A,,Overcast,0,2012-09-25 05:53:00
11:53 PM,53.1,50.0,89,30.15,6.0,Calm,Calm,-,N/A,,Overcast,0,2012-09-25 06:53:00